sensor_id;sensor_type;location;lat;lon;timestamp;P1;durP1;ratioP1;P2;durP2;ratioP2
19456;SDS011;9867;48.094;11.478;2023-02-12T00:00:50;16.57;;;14.80;;
19456;SDS011;9867;48.094;11.478;2023-02-12T00:03:17;16.40;;;14.50;;
19456;SDS011;9867;48.094;11.478;2023-02-12T00:05:44;16.87;;;14.07;;
19456;SDS011;9867;48.094;11.478;2023-02-12T00:08:10;19.23;;;14.83;;
19456;SDS011;9867;48.094;11.478;2023-02-12T00:10:39;19.33;;;15.50;;
19456;SDS011;9867;48.094;11.478;2023-02-12T00:13:07;18.13;;;15.33;;
19456;SDS011;9867;48.094;11.478;2023-02-12T00:15:36;17.73;;;15.10;;
19456;SDS011;9867;48.094;11.478;2023-02-12T00:18:06;19.50;;;15.83;;
19456;SDS011;9867;48.094;11.478;2023-02-12T00:20:33;18.43;;;15.73;;
19456;SDS011;9867;48.094;11.478;2023-02-12T00:23:00;20.90;;;16.30;;
19456;SDS011;9867;48.094;11.478;2023-02-12T00:25:26;19.23;;;16.43;;
19456;SDS011;9867;48.094;11.478;2023-02-12T00:27:53;21.07;;;15.73;;
19456;SDS011;9867;48.094;11.478;2023-02-12T00:30:19;18.57;;;15.63;;
19456;SDS011;9867;48.094;11.478;2023-02-12T00:32:46;20.63;;;16.67;;
19456;SDS011;9867;48.094;11.478;2023-02-12T00:35:12;21.33;;;15.70;;
19456;SDS011;9867;48.094;11.478;2023-02-12T00:37:39;19.23;;;16.20;;
19456;SDS011;9867;48.094;11.478;2023-02-12T00:40:07;19.03;;;15.33;;
19456;SDS011;9867;48.094;11.478;2023-02-12T00:42:34;20.73;;;15.70;;
19456;SDS011;9867;48.094;11.478;2023-02-12T00:45:00;20.70;;;16.03;;
19456;SDS011;9867;48.094;11.478;2023-02-12T00:47:29;21.83;;;15.13;;
19456;SDS011;9867;48.094;11.478;2023-02-12T00:49:56;16.10;;;14.37;;
19456;SDS011;9867;48.094;11.478;2023-02-12T00:52:22;16.07;;;13.70;;
19456;SDS011;9867;48.094;11.478;2023-02-12T00:54:48;14.87;;;13.10;;
19456;SDS011;9867;48.094;11.478;2023-02-12T00:57:15;15.97;;;12.63;;
19456;SDS011;9867;48.094;11.478;2023-02-12T00:59:42;16.70;;;13.57;;
19456;SDS011;9867;48.094;11.478;2023-02-12T01:02:08;17.00;;;14.57;;
19456;SDS011;9867;48.094;11.478;2023-02-12T01:04:35;18.20;;;13.73;;
19456;SDS011;9867;48.094;11.478;2023-02-12T01:07:01;14.83;;;13.07;;
19456;SDS011;9867;48.094;11.478;2023-02-12T01:09:28;16.70;;;13.57;;
19456;SDS011;9867;48.094;11.478;2023-02-12T01:11:54;15.93;;;14.23;;
19456;SDS011;9867;48.094;11.478;2023-02-12T01:14:21;17.53;;;14.33;;
19456;SDS011;9867;48.094;11.478;2023-02-12T01:16:48;17.03;;;13.43;;
19456;SDS011;9867;48.094;11.478;2023-02-12T01:19:14;15.40;;;13.50;;
19456;SDS011;9867;48.094;11.478;2023-02-12T01:21:41;15.53;;;13.13;;
19456;SDS011;9867;48.094;11.478;2023-02-12T01:24:08;15.83;;;13.50;;
19456;SDS011;9867;48.094;11.478;2023-02-12T01:26:35;16.00;;;14.20;;
19456;SDS011;9867;48.094;11.478;2023-02-12T01:29:03;17.80;;;14.80;;
19456;SDS011;9867;48.094;11.478;2023-02-12T01:31:33;16.47;;;14.30;;
19456;SDS011;9867;48.094;11.478;2023-02-12T01:34:02;16.60;;;13.80;;
19456;SDS011;9867;48.094;11.478;2023-02-12T01:36:31;16.33;;;14.20;;
19456;SDS011;9867;48.094;11.478;2023-02-12T01:38:58;15.10;;;13.50;;
19456;SDS011;9867;48.094;11.478;2023-02-12T01:41:27;17.93;;;14.27;;
19456;SDS011;9867;48.094;11.478;2023-02-12T01:44:09;14.90;;;13.27;;
19456;SDS011;9867;48.094;11.478;2023-02-12T01:46:39;17.33;;;13.00;;
19456;SDS011;9867;48.094;11.478;2023-02-12T01:49:06;16.87;;;14.07;;
19456;SDS011;9867;48.094;11.478;2023-02-12T01:51:36;15.90;;;13.67;;
19456;SDS011;9867;48.094;11.478;2023-02-12T01:54:04;13.37;;;11.97;;
19456;SDS011;9867;48.094;11.478;2023-02-12T01:56:32;17.47;;;13.93;;
19456;SDS011;9867;48.094;11.478;2023-02-12T01:58:59;15.60;;;13.33;;
19456;SDS011;9867;48.094;11.478;2023-02-12T02:01:29;15.70;;;14.00;;
19456;SDS011;9867;48.094;11.478;2023-02-12T02:04:00;14.60;;;12.70;;
19456;SDS011;9867;48.094;11.478;2023-02-12T02:06:30;17.73;;;13.20;;
19456;SDS011;9867;48.094;11.478;2023-02-12T02:09:00;15.57;;;13.23;;
19456;SDS011;9867;48.094;11.478;2023-02-12T02:11:27;14.17;;;12.60;;
19456;SDS011;9867;48.094;11.478;2023-02-12T02:14:12;18.67;;;13.23;;
19456;SDS011;9867;48.094;11.478;2023-02-12T02:20:05;18.50;;;14.67;;
19456;SDS011;9867;48.094;11.478;2023-02-12T02:23:07;14.20;;;12.60;;
19456;SDS011;9867;48.094;11.478;2023-02-12T02:25:55;14.97;;;13.27;;
19456;SDS011;9867;48.094;11.478;2023-02-12T02:28:52;14.67;;;12.73;;
19456;SDS011;9867;48.094;11.478;2023-02-12T02:31:25;15.50;;;13.83;;
19456;SDS011;9867;48.094;11.478;2023-02-12T02:33:58;17.80;;;13.40;;
19456;SDS011;9867;48.094;11.478;2023-02-12T02:36:34;13.93;;;12.47;;
19456;SDS011;9867;48.094;11.478;2023-02-12T02:39:24;16.50;;;12.70;;
19456;SDS011;9867;48.094;11.478;2023-02-12T02:41:55;17.03;;;14.70;;
19456;SDS011;9867;48.094;11.478;2023-02-12T02:44:26;18.33;;;14.63;;
19456;SDS011;9867;48.094;11.478;2023-02-12T02:47:10;18.93;;;14.30;;
19456;SDS011;9867;48.094;11.478;2023-02-12T02:49:40;16.20;;;14.50;;
19456;SDS011;9867;48.094;11.478;2023-02-12T02:52:13;17.77;;;15.57;;
19456;SDS011;9867;48.094;11.478;2023-02-12T02:54:44;16.23;;;14.10;;
19456;SDS011;9867;48.094;11.478;2023-02-12T02:57:14;17.00;;;14.10;;
19456;SDS011;9867;48.094;11.478;2023-02-12T02:59:45;17.30;;;13.63;;
19456;SDS011;9867;48.094;11.478;2023-02-12T03:02:17;17.30;;;14.33;;
19456;SDS011;9867;48.094;11.478;2023-02-12T03:04:50;17.97;;;14.90;;
19456;SDS011;9867;48.094;11.478;2023-02-12T03:07:20;16.77;;;15.00;;
19456;SDS011;9867;48.094;11.478;2023-02-12T03:09:53;17.77;;;15.87;;
19456;SDS011;9867;48.094;11.478;2023-02-12T03:12:26;17.73;;;15.53;;
19456;SDS011;9867;48.094;11.478;2023-02-12T03:15:00;19.90;;;15.10;;
19456;SDS011;9867;48.094;11.478;2023-02-12T03:17:31;19.57;;;15.23;;
19456;SDS011;9867;48.094;11.478;2023-02-12T03:20:02;16.70;;;14.97;;
19456;SDS011;9867;48.094;11.478;2023-02-12T03:22:32;17.53;;;15.07;;
19456;SDS011;9867;48.094;11.478;2023-02-12T03:25:02;18.03;;;15.40;;
19456;SDS011;9867;48.094;11.478;2023-02-12T03:27:35;13.97;;;12.53;;
19456;SDS011;9867;48.094;11.478;2023-02-12T03:30:05;16.33;;;13.77;;
19456;SDS011;9867;48.094;11.478;2023-02-12T03:32:34;15.43;;;13.13;;
19456;SDS011;9867;48.094;11.478;2023-02-12T03:35:11;14.93;;;13.33;;
19456;SDS011;9867;48.094;11.478;2023-02-12T03:37:45;16.67;;;13.67;;
19456;SDS011;9867;48.094;11.478;2023-02-12T03:40:21;14.50;;;13.00;;
19456;SDS011;9867;48.094;11.478;2023-02-12T03:42:54;14.30;;;12.77;;
19456;SDS011;9867;48.094;11.478;2023-02-12T03:45:28;17.67;;;13.50;;
19456;SDS011;9867;48.094;11.478;2023-02-12T03:48:05;19.07;;;15.33;;
19456;SDS011;9867;48.094;11.478;2023-02-12T03:50:36;14.97;;;13.47;;
19456;SDS011;9867;48.094;11.478;2023-02-12T03:53:08;17.03;;;14.13;;
19456;SDS011;9867;48.094;11.478;2023-02-12T03:55:35;17.87;;;15.20;;
19456;SDS011;9867;48.094;11.478;2023-02-12T03:58:06;19.07;;;15.40;;
19456;SDS011;9867;48.094;11.478;2023-02-12T04:00:36;15.07;;;13.47;;
19456;SDS011;9867;48.094;11.478;2023-02-12T04:03:04;18.17;;;15.20;;
19456;SDS011;9867;48.094;11.478;2023-02-12T04:05:32;17.90;;;14.77;;
19456;SDS011;9867;48.094;11.478;2023-02-12T04:07:58;18.73;;;15.50;;
19456;SDS011;9867;48.094;11.478;2023-02-12T04:10:28;16.93;;;14.87;;
19456;SDS011;9867;48.094;11.478;2023-02-12T04:12:59;19.50;;;15.47;;
19456;SDS011;9867;48.094;11.478;2023-02-12T04:15:38;17.23;;;14.33;;
19456;SDS011;9867;48.094;11.478;2023-02-12T04:18:14;16.70;;;14.60;;
19456;SDS011;9867;48.094;11.478;2023-02-12T04:20:47;17.43;;;14.97;;
19456;SDS011;9867;48.094;11.478;2023-02-12T04:23:26;19.13;;;15.17;;
19456;SDS011;9867;48.094;11.478;2023-02-12T04:26:08;16.53;;;14.33;;
19456;SDS011;9867;48.094;11.478;2023-02-12T04:28:42;15.80;;;14.03;;
19456;SDS011;9867;48.094;11.478;2023-02-12T04:31:20;16.80;;;14.43;;
19456;SDS011;9867;48.094;11.478;2023-02-12T04:33:53;15.83;;;14.13;;
19456;SDS011;9867;48.094;11.478;2023-02-12T04:36:30;17.20;;;14.50;;
19456;SDS011;9867;48.094;11.478;2023-02-12T04:39:00;16.77;;;14.87;;
19456;SDS011;9867;48.094;11.478;2023-02-12T04:41:31;18.80;;;15.70;;
19456;SDS011;9867;48.094;11.478;2023-02-12T04:43:58;18.23;;;14.60;;
19456;SDS011;9867;48.094;11.478;2023-02-12T04:46:38;19.40;;;15.43;;
19456;SDS011;9867;48.094;11.478;2023-02-12T04:49:05;17.47;;;14.93;;
19456;SDS011;9867;48.094;11.478;2023-02-12T04:51:38;19.77;;;15.73;;
19456;SDS011;9867;48.094;11.478;2023-02-12T04:54:04;18.33;;;15.83;;
19456;SDS011;9867;48.094;11.478;2023-02-12T04:56:31;17.33;;;15.53;;
19456;SDS011;9867;48.094;11.478;2023-02-12T04:58:57;18.80;;;15.83;;
19456;SDS011;9867;48.094;11.478;2023-02-12T05:01:24;15.70;;;13.93;;
19456;SDS011;9867;48.094;11.478;2023-02-12T05:03:51;15.90;;;14.13;;
19456;SDS011;9867;48.094;11.478;2023-02-12T05:06:18;17.40;;;14.93;;
19456;SDS011;9867;48.094;11.478;2023-02-12T05:08:44;17.40;;;13.93;;
19456;SDS011;9867;48.094;11.478;2023-02-12T05:11:11;17.40;;;15.20;;
19456;SDS011;9867;48.094;11.478;2023-02-12T05:13:37;16.37;;;13.70;;
19456;SDS011;9867;48.094;11.478;2023-02-12T05:16:04;16.93;;;13.67;;
19456;SDS011;9867;48.094;11.478;2023-02-12T05:18:32;18.47;;;14.37;;
19456;SDS011;9867;48.094;11.478;2023-02-12T05:21:01;14.80;;;13.20;;
19456;SDS011;9867;48.094;11.478;2023-02-12T05:23:30;16.10;;;13.00;;
19456;SDS011;9867;48.094;11.478;2023-02-12T05:25:58;14.67;;;13.17;;
19456;SDS011;9867;48.094;11.478;2023-02-12T05:28:25;18.63;;;14.70;;
19456;SDS011;9867;48.094;11.478;2023-02-12T05:30:52;22.80;;;15.43;;
19456;SDS011;9867;48.094;11.478;2023-02-12T05:33:19;17.97;;;15.43;;
19456;SDS011;9867;48.094;11.478;2023-02-12T05:35:45;20.27;;;15.13;;
19456;SDS011;9867;48.094;11.478;2023-02-12T05:38:12;16.57;;;14.77;;
19456;SDS011;9867;48.094;11.478;2023-02-12T05:40:39;16.83;;;13.93;;
19456;SDS011;9867;48.094;11.478;2023-02-12T05:43:07;17.87;;;14.30;;
19456;SDS011;9867;48.094;11.478;2023-02-12T05:45:34;16.20;;;13.63;;
19456;SDS011;9867;48.094;11.478;2023-02-12T05:48:00;16.57;;;13.73;;
19456;SDS011;9867;48.094;11.478;2023-02-12T05:50:27;17.00;;;14.07;;
19456;SDS011;9867;48.094;11.478;2023-02-12T05:52:58;15.40;;;13.53;;
19456;SDS011;9867;48.094;11.478;2023-02-12T05:55:25;15.73;;;14.03;;
19456;SDS011;9867;48.094;11.478;2023-02-12T05:57:57;20.37;;;14.73;;
19456;SDS011;9867;48.094;11.478;2023-02-12T06:00:24;16.73;;;14.50;;
19456;SDS011;9867;48.094;11.478;2023-02-12T06:02:50;15.50;;;13.23;;
19456;SDS011;9867;48.094;11.478;2023-02-12T06:05:17;15.90;;;13.37;;
19456;SDS011;9867;48.094;11.478;2023-02-12T06:07:43;15.33;;;13.73;;
19456;SDS011;9867;48.094;11.478;2023-02-12T06:10:10;15.20;;;13.60;;
19456;SDS011;9867;48.094;11.478;2023-02-12T06:12:37;15.47;;;13.23;;
19456;SDS011;9867;48.094;11.478;2023-02-12T06:15:04;15.80;;;14.17;;
19456;SDS011;9867;48.094;11.478;2023-02-12T06:17:32;15.37;;;13.47;;
19456;SDS011;9867;48.094;11.478;2023-02-12T06:19:59;16.53;;;14.27;;
19456;SDS011;9867;48.094;11.478;2023-02-12T06:22:26;16.60;;;14.10;;
19456;SDS011;9867;48.094;11.478;2023-02-12T06:24:52;19.10;;;14.90;;
19456;SDS011;9867;48.094;11.478;2023-02-12T06:27:19;16.53;;;14.03;;
19456;SDS011;9867;48.094;11.478;2023-02-12T06:29:45;16.83;;;14.50;;
19456;SDS011;9867;48.094;11.478;2023-02-12T06:32:12;17.03;;;14.33;;
19456;SDS011;9867;48.094;11.478;2023-02-12T06:34:39;18.30;;;15.33;;
19456;SDS011;9867;48.094;11.478;2023-02-12T06:37:06;18.17;;;14.23;;
19456;SDS011;9867;48.094;11.478;2023-02-12T06:39:32;17.07;;;14.70;;
19456;SDS011;9867;48.094;11.478;2023-02-12T06:41:59;20.80;;;15.93;;
19456;SDS011;9867;48.094;11.478;2023-02-12T06:44:26;18.97;;;16.00;;
19456;SDS011;9867;48.094;11.478;2023-02-12T06:46:52;17.73;;;15.30;;
19456;SDS011;9867;48.094;11.478;2023-02-12T06:49:20;24.57;;;19.43;;
19456;SDS011;9867;48.094;11.478;2023-02-12T06:51:46;19.13;;;14.87;;
19456;SDS011;9867;48.094;11.478;2023-02-12T06:54:13;21.30;;;16.10;;
19456;SDS011;9867;48.094;11.478;2023-02-12T06:56:42;22.63;;;18.10;;
19456;SDS011;9867;48.094;11.478;2023-02-12T06:59:09;21.30;;;18.17;;
19456;SDS011;9867;48.094;11.478;2023-02-12T07:01:38;17.60;;;15.70;;
19456;SDS011;9867;48.094;11.478;2023-02-12T07:04:05;19.67;;;15.90;;
19456;SDS011;9867;48.094;11.478;2023-02-12T07:06:33;22.70;;;19.17;;
19456;SDS011;9867;48.094;11.478;2023-02-12T07:09:01;21.80;;;19.50;;
19456;SDS011;9867;48.094;11.478;2023-02-12T07:11:30;25.07;;;17.47;;
19456;SDS011;9867;48.094;11.478;2023-02-12T07:14:00;19.37;;;17.30;;
19456;SDS011;9867;48.094;11.478;2023-02-12T07:16:26;18.13;;;16.20;;
19456;SDS011;9867;48.094;11.478;2023-02-12T07:18:53;18.97;;;16.20;;
19456;SDS011;9867;48.094;11.478;2023-02-12T07:21:20;18.90;;;16.33;;
19456;SDS011;9867;48.094;11.478;2023-02-12T07:23:47;18.90;;;16.33;;
19456;SDS011;9867;48.094;11.478;2023-02-12T07:26:17;19.50;;;15.13;;
19456;SDS011;9867;48.094;11.478;2023-02-12T07:28:44;22.13;;;15.47;;
19456;SDS011;9867;48.094;11.478;2023-02-12T07:31:11;18.13;;;14.17;;
19456;SDS011;9867;48.094;11.478;2023-02-12T07:33:39;16.07;;;14.43;;
19456;SDS011;9867;48.094;11.478;2023-02-12T07:36:07;16.63;;;13.87;;
19456;SDS011;9867;48.094;11.478;2023-02-12T07:38:35;15.50;;;13.60;;
19456;SDS011;9867;48.094;11.478;2023-02-12T07:41:14;16.57;;;12.93;;
19456;SDS011;9867;48.094;11.478;2023-02-12T07:43:42;16.47;;;13.50;;
19456;SDS011;9867;48.094;11.478;2023-02-12T07:46:11;16.23;;;13.67;;
19456;SDS011;9867;48.094;11.478;2023-02-12T07:48:39;18.27;;;13.53;;
19456;SDS011;9867;48.094;11.478;2023-02-12T07:51:06;15.73;;;13.30;;
19456;SDS011;9867;48.094;11.478;2023-02-12T07:53:34;15.97;;;13.37;;
19456;SDS011;9867;48.094;11.478;2023-02-12T07:56:08;18.00;;;13.07;;
19456;SDS011;9867;48.094;11.478;2023-02-12T07:58:41;16.47;;;13.97;;
19456;SDS011;9867;48.094;11.478;2023-02-12T08:01:10;17.00;;;13.50;;
19456;SDS011;9867;48.094;11.478;2023-02-12T08:03:41;16.93;;;14.83;;
19456;SDS011;9867;48.094;11.478;2023-02-12T08:06:09;17.37;;;14.33;;
19456;SDS011;9867;48.094;11.478;2023-02-12T08:08:36;14.33;;;12.47;;
19456;SDS011;9867;48.094;11.478;2023-02-12T08:11:04;18.77;;;14.27;;
19456;SDS011;9867;48.094;11.478;2023-02-12T08:13:34;15.50;;;13.73;;
19456;SDS011;9867;48.094;11.478;2023-02-12T08:16:03;17.23;;;14.67;;
19456;SDS011;9867;48.094;11.478;2023-02-12T08:18:31;18.80;;;16.30;;
19456;SDS011;9867;48.094;11.478;2023-02-12T08:21:02;19.20;;;14.97;;
19456;SDS011;9867;48.094;11.478;2023-02-12T08:23:30;20.10;;;15.80;;
19456;SDS011;9867;48.094;11.478;2023-02-12T08:26:06;25.07;;;17.07;;
19456;SDS011;9867;48.094;11.478;2023-02-12T08:28:35;24.60;;;17.67;;
19456;SDS011;9867;48.094;11.478;2023-02-12T08:31:07;24.13;;;20.23;;
19456;SDS011;9867;48.094;11.478;2023-02-12T08:33:36;23.37;;;20.40;;
19456;SDS011;9867;48.094;11.478;2023-02-12T08:36:03;25.87;;;21.30;;
19456;SDS011;9867;48.094;11.478;2023-02-12T08:38:31;24.87;;;19.87;;
19456;SDS011;9867;48.094;11.478;2023-02-12T08:41:02;25.20;;;20.23;;
19456;SDS011;9867;48.094;11.478;2023-02-12T08:43:29;24.77;;;20.37;;
19456;SDS011;9867;48.094;11.478;2023-02-12T08:46:00;30.40;;;23.57;;
19456;SDS011;9867;48.094;11.478;2023-02-12T08:48:27;25.57;;;20.53;;
19456;SDS011;9867;48.094;11.478;2023-02-12T08:50:54;23.63;;;20.10;;
19456;SDS011;9867;48.094;11.478;2023-02-12T08:53:21;23.93;;;20.33;;
19456;SDS011;9867;48.094;11.478;2023-02-12T08:55:47;23.37;;;20.17;;
19456;SDS011;9867;48.094;11.478;2023-02-12T08:58:18;25.57;;;21.13;;
19456;SDS011;9867;48.094;11.478;2023-02-12T09:00:45;24.83;;;20.60;;
19456;SDS011;9867;48.094;11.478;2023-02-12T09:03:11;24.53;;;20.70;;
19456;SDS011;9867;48.094;11.478;2023-02-12T09:05:41;23.27;;;20.10;;
19456;SDS011;9867;48.094;11.478;2023-02-12T09:08:08;23.47;;;18.53;;
19456;SDS011;9867;48.094;11.478;2023-02-12T09:10:37;23.93;;;18.83;;
19456;SDS011;9867;48.094;11.478;2023-02-12T09:13:04;25.57;;;19.87;;
19456;SDS011;9867;48.094;11.478;2023-02-12T09:15:34;23.63;;;19.03;;
19456;SDS011;9867;48.094;11.478;2023-02-12T09:18:01;22.97;;;17.67;;
19456;SDS011;9867;48.094;11.478;2023-02-12T09:20:29;25.23;;;19.37;;
19456;SDS011;9867;48.094;11.478;2023-02-12T09:22:57;20.83;;;18.30;;
19456;SDS011;9867;48.094;11.478;2023-02-12T09:25:24;18.47;;;15.97;;
19456;SDS011;9867;48.094;11.478;2023-02-12T09:27:51;17.80;;;15.07;;
19456;SDS011;9867;48.094;11.478;2023-02-12T09:30:18;17.17;;;15.13;;
19456;SDS011;9867;48.094;11.478;2023-02-12T09:32:44;20.67;;;16.47;;
19456;SDS011;9867;48.094;11.478;2023-02-12T09:35:11;19.07;;;15.83;;
19456;SDS011;9867;48.094;11.478;2023-02-12T09:37:37;16.53;;;13.77;;
19456;SDS011;9867;48.094;11.478;2023-02-12T09:40:06;19.43;;;15.00;;
19456;SDS011;9867;48.094;11.478;2023-02-12T09:42:40;18.40;;;15.17;;
19456;SDS011;9867;48.094;11.478;2023-02-12T09:45:19;16.30;;;14.47;;
19456;SDS011;9867;48.094;11.478;2023-02-12T09:47:49;16.97;;;13.43;;
19456;SDS011;9867;48.094;11.478;2023-02-12T09:53:11;14.00;;;9.80;;
19456;SDS011;9867;48.094;11.478;2023-02-12T09:55:41;10.77;;;8.87;;
19456;SDS011;9867;48.094;11.478;2023-02-12T09:58:10;10.70;;;9.37;;
19456;SDS011;9867;48.094;11.478;2023-02-12T10:00:41;6.63;;;5.80;;
19456;SDS011;9867;48.094;11.478;2023-02-12T10:03:10;10.93;;;7.80;;
19456;SDS011;9867;48.094;11.478;2023-02-12T10:05:41;9.60;;;8.43;;
19456;SDS011;9867;48.094;11.478;2023-02-12T10:08:19;10.90;;;8.60;;
19456;SDS011;9867;48.094;11.478;2023-02-12T10:10:58;10.27;;;8.93;;
19456;SDS011;9867;48.094;11.478;2023-02-12T10:13:42;8.10;;;6.30;;
19456;SDS011;9867;48.094;11.478;2023-02-12T10:16:16;6.20;;;5.60;;
19456;SDS011;9867;48.094;11.478;2023-02-12T10:18:57;10.50;;;7.43;;
19456;SDS011;9867;48.094;11.478;2023-02-12T10:21:32;11.47;;;7.40;;
19456;SDS011;9867;48.094;11.478;2023-02-12T10:24:15;10.07;;;8.10;;
19456;SDS011;9867;48.094;11.478;2023-02-12T10:26:55;10.03;;;8.23;;
19456;SDS011;9867;48.094;11.478;2023-02-12T10:29:26;7.60;;;6.80;;
19456;SDS011;9867;48.094;11.478;2023-02-12T10:31:57;6.47;;;5.87;;
19456;SDS011;9867;48.094;11.478;2023-02-12T10:34:33;6.97;;;6.27;;
19456;SDS011;9867;48.094;11.478;2023-02-12T10:37:01;7.13;;;5.30;;
19456;SDS011;9867;48.094;11.478;2023-02-12T10:39:36;6.10;;;5.07;;
19456;SDS011;9867;48.094;11.478;2023-02-12T10:42:09;5.30;;;4.80;;
19456;SDS011;9867;48.094;11.478;2023-02-12T10:44:41;6.07;;;5.47;;
19456;SDS011;9867;48.094;11.478;2023-02-12T10:47:10;5.20;;;4.70;;
19456;SDS011;9867;48.094;11.478;2023-02-12T10:49:43;5.07;;;4.67;;
19456;SDS011;9867;48.094;11.478;2023-02-12T10:52:11;4.57;;;4.10;;
19456;SDS011;9867;48.094;11.478;2023-02-12T10:54:46;4.90;;;4.40;;
19456;SDS011;9867;48.094;11.478;2023-02-12T10:57:16;5.47;;;4.40;;
19456;SDS011;9867;48.094;11.478;2023-02-12T10:59:46;4.50;;;4.10;;
19456;SDS011;9867;48.094;11.478;2023-02-12T11:02:16;4.03;;;3.67;;
19456;SDS011;9867;48.094;11.478;2023-02-12T11:04:45;3.97;;;3.50;;
19456;SDS011;9867;48.094;11.478;2023-02-12T11:07:12;3.90;;;3.60;;
19456;SDS011;9867;48.094;11.478;2023-02-12T11:09:40;5.83;;;3.83;;
19456;SDS011;9867;48.094;11.478;2023-02-12T11:12:22;4.00;;;3.60;;
19456;SDS011;9867;48.094;11.478;2023-02-12T11:14:56;5.17;;;3.83;;
19456;SDS011;9867;48.094;11.478;2023-02-12T11:17:25;4.37;;;3.97;;
19456;SDS011;9867;48.094;11.478;2023-02-12T11:20:06;4.27;;;3.87;;
19456;SDS011;9867;48.094;11.478;2023-02-12T11:22:49;5.77;;;4.13;;
19456;SDS011;9867;48.094;11.478;2023-02-12T11:25:20;3.70;;;3.40;;
19456;SDS011;9867;48.094;11.478;2023-02-12T11:27:59;4.30;;;3.90;;
19456;SDS011;9867;48.094;11.478;2023-02-12T11:30:28;5.90;;;4.00;;
19456;SDS011;9867;48.094;11.478;2023-02-12T11:33:09;4.47;;;3.97;;
19456;SDS011;9867;48.094;11.478;2023-02-12T11:35:47;5.97;;;4.53;;
19456;SDS011;9867;48.094;11.478;2023-02-12T11:38:17;5.47;;;4.97;;
19456;SDS011;9867;48.094;11.478;2023-02-12T11:40:52;7.10;;;6.17;;
19456;SDS011;9867;48.094;11.478;2023-02-12T11:43:23;6.63;;;5.97;;
19456;SDS011;9867;48.094;11.478;2023-02-12T11:45:52;6.23;;;5.63;;
19456;SDS011;9867;48.094;11.478;2023-02-12T11:48:22;9.37;;;6.97;;
19456;SDS011;9867;48.094;11.478;2023-02-12T11:50:54;9.53;;;6.10;;
19456;SDS011;9867;48.094;11.478;2023-02-12T11:53:23;7.90;;;6.27;;
19456;SDS011;9867;48.094;11.478;2023-02-12T11:55:54;7.13;;;6.43;;
19456;SDS011;9867;48.094;11.478;2023-02-12T11:58:25;6.63;;;6.03;;
19456;SDS011;9867;48.094;11.478;2023-02-12T12:00:53;5.93;;;5.33;;
19456;SDS011;9867;48.094;11.478;2023-02-12T12:03:31;8.20;;;6.27;;
19456;SDS011;9867;48.094;11.478;2023-02-12T12:06:04;5.50;;;4.63;;
19456;SDS011;9867;48.094;11.478;2023-02-12T12:08:45;5.20;;;4.10;;
19456;SDS011;9867;48.094;11.478;2023-02-12T12:11:17;4.40;;;4.00;;
19456;SDS011;9867;48.094;11.478;2023-02-12T12:13:48;4.63;;;4.23;;
19456;SDS011;9867;48.094;11.478;2023-02-12T12:16:19;5.30;;;4.80;;
19456;SDS011;9867;48.094;11.478;2023-02-12T12:19:13;4.67;;;4.27;;
19456;SDS011;9867;48.094;11.478;2023-02-12T12:22:03;6.07;;;4.20;;
19456;SDS011;9867;48.094;11.478;2023-02-12T12:24:37;3.80;;;3.50;;
19456;SDS011;9867;48.094;11.478;2023-02-12T12:27:09;4.27;;;3.87;;
19456;SDS011;9867;48.094;11.478;2023-02-12T12:30:14;3.80;;;3.50;;
19456;SDS011;9867;48.094;11.478;2023-02-12T12:32:45;5.10;;;3.60;;
19456;SDS011;9867;48.094;11.478;2023-02-12T12:35:16;3.87;;;3.57;;
19456;SDS011;9867;48.094;11.478;2023-02-12T12:37:46;13.47;;;4.40;;
19456;SDS011;9867;48.094;11.478;2023-02-12T12:40:24;4.13;;;3.77;;
19456;SDS011;9867;48.094;11.478;2023-02-12T12:43:08;2.93;;;2.73;;
19456;SDS011;9867;48.094;11.478;2023-02-12T12:45:48;3.90;;;2.80;;
19456;SDS011;9867;48.094;11.478;2023-02-12T12:48:35;3.97;;;3.67;;
19456;SDS011;9867;48.094;11.478;2023-02-12T12:51:21;4.00;;;3.43;;
19456;SDS011;9867;48.094;11.478;2023-02-12T12:54:02;3.93;;;3.33;;
19456;SDS011;9867;48.094;11.478;2023-02-12T12:56:42;4.10;;;3.80;;
19456;SDS011;9867;48.094;11.478;2023-02-12T13:02:36;4.47;;;2.80;;
19456;SDS011;9867;48.094;11.478;2023-02-12T13:08:27;4.03;;;3.03;;
19456;SDS011;9867;48.094;11.478;2023-02-12T13:11:06;4.47;;;2.97;;
19456;SDS011;9867;48.094;11.478;2023-02-12T13:13:41;3.00;;;2.73;;
19456;SDS011;9867;48.094;11.478;2023-02-12T13:16:13;5.57;;;3.03;;
19456;SDS011;9867;48.094;11.478;2023-02-12T13:18:49;5.47;;;2.80;;
19456;SDS011;9867;48.094;11.478;2023-02-12T13:21:27;3.43;;;3.17;;
19456;SDS011;9867;48.094;11.478;2023-02-12T13:24:05;3.20;;;2.90;;
19456;SDS011;9867;48.094;11.478;2023-02-12T13:26:41;5.77;;;5.13;;
19456;SDS011;9867;48.094;11.478;2023-02-12T13:29:15;3.30;;;3.00;;
19456;SDS011;9867;48.094;11.478;2023-02-12T13:31:46;5.20;;;3.37;;
19456;SDS011;9867;48.094;11.478;2023-02-12T13:34:17;3.97;;;3.57;;
19456;SDS011;9867;48.094;11.478;2023-02-12T13:36:46;4.33;;;3.93;;
19456;SDS011;9867;48.094;11.478;2023-02-12T13:39:15;4.63;;;4.23;;
19456;SDS011;9867;48.094;11.478;2023-02-12T13:41:53;4.77;;;4.20;;
19456;SDS011;9867;48.094;11.478;2023-02-12T13:44:30;5.20;;;4.70;;
19456;SDS011;9867;48.094;11.478;2023-02-12T13:47:02;6.63;;;4.90;;
19456;SDS011;9867;48.094;11.478;2023-02-12T13:49:40;6.47;;;5.10;;
19456;SDS011;9867;48.094;11.478;2023-02-12T13:52:16;5.17;;;4.60;;
19456;SDS011;9867;48.094;11.478;2023-02-12T13:54:53;5.77;;;5.10;;
19456;SDS011;9867;48.094;11.478;2023-02-12T13:57:27;5.60;;;5.10;;
19456;SDS011;9867;48.094;11.478;2023-02-12T13:59:54;5.73;;;5.17;;
19456;SDS011;9867;48.094;11.478;2023-02-12T14:02:26;5.00;;;4.50;;
19456;SDS011;9867;48.094;11.478;2023-02-12T14:05:14;5.80;;;5.20;;
19456;SDS011;9867;48.094;11.478;2023-02-12T14:07:46;7.03;;;5.20;;
19456;SDS011;9867;48.094;11.478;2023-02-12T14:10:18;5.00;;;4.60;;
19456;SDS011;9867;48.094;11.478;2023-02-12T14:12:48;6.00;;;5.40;;
19456;SDS011;9867;48.094;11.478;2023-02-12T14:15:29;7.73;;;5.27;;
19456;SDS011;9867;48.094;11.478;2023-02-12T14:20:57;9.03;;;6.10;;
19456;SDS011;9867;48.094;11.478;2023-02-12T14:27:16;6.80;;;5.57;;
19456;SDS011;9867;48.094;11.478;2023-02-12T14:30:00;6.40;;;5.80;;
19456;SDS011;9867;48.094;11.478;2023-02-12T14:32:55;8.83;;;6.30;;
19456;SDS011;9867;48.094;11.478;2023-02-12T14:35:37;6.90;;;6.20;;
19456;SDS011;9867;48.094;11.478;2023-02-12T14:41:14;10.37;;;9.27;;
19456;SDS011;9867;48.094;11.478;2023-02-12T14:47:12;8.97;;;7.67;;
19456;SDS011;9867;48.094;11.478;2023-02-12T14:50:11;8.30;;;6.90;;
19456;SDS011;9867;48.094;11.478;2023-02-12T14:52:42;8.53;;;7.00;;
19456;SDS011;9867;48.094;11.478;2023-02-12T14:55:22;9.20;;;8.30;;
19456;SDS011;9867;48.094;11.478;2023-02-12T14:57:56;7.13;;;6.43;;
19456;SDS011;9867;48.094;11.478;2023-02-12T15:00:26;8.23;;;7.40;;
19456;SDS011;9867;48.094;11.478;2023-02-12T15:02:57;9.50;;;7.33;;
19456;SDS011;9867;48.094;11.478;2023-02-12T15:05:28;7.20;;;6.50;;
19456;SDS011;9867;48.094;11.478;2023-02-12T15:07:58;8.53;;;6.83;;
19456;SDS011;9867;48.094;11.478;2023-02-12T15:10:27;7.73;;;6.97;;
19456;SDS011;9867;48.094;11.478;2023-02-12T15:13:02;7.87;;;7.10;;
19456;SDS011;9867;48.094;11.478;2023-02-12T15:15:35;8.50;;;7.20;;
19456;SDS011;9867;48.094;11.478;2023-02-12T15:18:10;9.10;;;8.00;;
19456;SDS011;9867;48.094;11.478;2023-02-12T15:20:43;8.73;;;7.83;;